createdAt,value
2022-12-27T00:00:33.687Z,985.68
2022-12-27T00:07:04.055Z,985.66
2022-12-27T00:13:27.446Z,985.73
2022-12-27T00:19:49.402Z,985.75
2022-12-27T00:26:13.511Z,985.73
2022-12-27T00:32:42.427Z,985.79
2022-12-27T00:39:07.045Z,985.85
2022-12-27T00:45:35.065Z,985.88
2022-12-27T00:52:04.394Z,985.92
2022-12-27T00:58:31.949Z,985.91
2022-12-27T01:04:53.936Z,986
2022-12-27T01:11:26.186Z,986.07
2022-12-27T01:17:53.502Z,986.1
2022-12-27T01:24:28.142Z,986.17
2022-12-27T01:31:04.642Z,986.26
2022-12-27T01:37:32.564Z,986.35
2022-12-27T01:44:11.891Z,986.48
2022-12-27T01:51:02.690Z,986.46
2022-12-27T01:57:46.887Z,986.5
2022-12-27T02:04:24.269Z,986.51
2022-12-27T02:11:11.100Z,986.55
2022-12-27T02:17:42.569Z,986.61
2022-12-27T02:24:52.866Z,986.64
2022-12-27T02:31:45.589Z,986.65
2022-12-27T02:38:44.474Z,986.64
2022-12-27T02:45:28.547Z,986.63
2022-12-27T02:52:12.483Z,986.7
2022-12-27T02:59:07.635Z,986.63
2022-12-27T03:06:08.384Z,986.56
2022-12-27T03:13:04.363Z,986.6
2022-12-27T03:20:11.058Z,986.59
2022-12-27T03:26:56.609Z,986.59
2022-12-27T03:33:42.496Z,986.66
2022-12-27T03:40:51.555Z,986.64
2022-12-27T03:47:47.576Z,986.74
2022-12-27T03:54:54.379Z,986.84
2022-12-27T04:01:20.974Z,986.89
2022-12-27T04:07:42.863Z,986.94
2022-12-27T04:14:05.536Z,986.93
2022-12-27T04:20:31.577Z,986.9
2022-12-27T04:26:54.791Z,986.83
2022-12-27T04:33:19.139Z,986.73
2022-12-27T04:39:48.424Z,986.69
2022-12-27T04:46:20.525Z,986.84
2022-12-27T04:53:05.675Z,986.95
2022-12-27T04:59:34.674Z,986.88
2022-12-27T05:06:02.923Z,986.83
2022-12-27T05:12:30.123Z,986.89
2022-12-27T05:18:58.922Z,986.91
2022-12-27T05:25:24.895Z,986.92
2022-12-27T05:32:00.259Z,986.86
2022-12-27T05:38:27.608Z,986.89
2022-12-27T05:44:53.993Z,986.87
2022-12-27T05:51:25.531Z,986.9
2022-12-27T05:57:48.663Z,986.96
2022-12-27T06:04:21.919Z,987.14
2022-12-27T06:10:49.880Z,987.13
2022-12-27T06:17:20.266Z,987.18
2022-12-27T06:23:48.064Z,987.13
2022-12-27T06:30:16.517Z,987.19
2022-12-27T06:36:50.600Z,987.22
2022-12-27T06:43:14.610Z,987.21
2022-12-27T06:49:47.601Z,987.28
2022-12-27T06:56:13.544Z,987.35
2022-12-27T07:02:45.019Z,987.35
2022-12-27T07:09:08.557Z,987.41
2022-12-27T07:15:32.779Z,987.4
2022-12-27T07:22:01.856Z,987.4
2022-12-27T07:28:24.043Z,987.47
2022-12-27T07:34:44.042Z,987.55
2022-12-27T07:41:09.641Z,987.59
2022-12-27T07:47:42.226Z,987.74
2022-12-27T07:54:05.480Z,987.85
2022-12-27T08:00:41.793Z,987.96
2022-12-27T08:07:14.566Z,987.99
2022-12-27T08:13:51.732Z,987.98
2022-12-27T08:20:23.650Z,988.04
2022-12-27T08:26:46.975Z,988
2022-12-27T08:33:21.736Z,988.09
2022-12-27T08:39:42.531Z,988.06
2022-12-27T08:46:06.082Z,988.03
2022-12-27T08:52:32.780Z,988.24
2022-12-27T08:58:54.349Z,988.2
2022-12-27T09:05:27.710Z,988.18
2022-12-27T09:12:09.927Z,988.2
2022-12-27T09:18:30.592Z,988.13
2022-12-27T09:25:00.740Z,988.21
2022-12-27T09:31:25.853Z,988.29
2022-12-27T09:37:57.101Z,988.32
2022-12-27T09:44:45.034Z,988.39
2022-12-27T09:51:36.710Z,988.32
2022-12-27T09:58:43.017Z,988.38
2022-12-27T10:05:40.218Z,988.3
2022-12-27T10:12:41.028Z,988.25
2022-12-27T10:19:32.752Z,988.23
2022-12-27T10:26:40.162Z,988.35
2022-12-27T10:33:18.744Z,988.34
2022-12-27T10:39:52.992Z,988.37
2022-12-27T10:46:52.231Z,988.25
2022-12-27T10:53:38.394Z,988.29
2022-12-27T11:00:34.840Z,988.31
2022-12-27T11:07:32.079Z,988.26
2022-12-27T11:14:21.996Z,988.26
2022-12-27T11:21:28.101Z,988.29
2022-12-27T11:28:22.008Z,988.26
2022-12-27T11:35:10.760Z,988.26
2022-12-27T11:42:01.975Z,988.25
2022-12-27T11:49:01.567Z,988.27
2022-12-27T11:55:59.257Z,988.27
2022-12-27T12:03:14.523Z,988.18
2022-12-27T12:10:21.993Z,988.12
2022-12-27T12:17:47.299Z,988.14
2022-12-27T12:25:01.589Z,988.21
2022-12-27T12:32:20.176Z,988.17
2022-12-27T12:39:16.139Z,988.09
2022-12-27T12:46:20.935Z,988.1
2022-12-27T12:53:18.936Z,988.14
2022-12-27T13:00:16.233Z,988.04
2022-12-27T13:07:15.115Z,987.95
2022-12-27T13:14:09.898Z,987.9
2022-12-27T13:21:21.008Z,987.79
2022-12-27T13:28:14.215Z,987.64
2022-12-27T13:35:20.317Z,987.48
2022-12-27T13:42:24.741Z,987.3
2022-12-27T13:49:32.240Z,987.22
2022-12-27T14:03:44.692Z,987.21
2022-12-27T14:11:06.842Z,987.15
2022-12-27T14:18:15.817Z,987.1
2022-12-27T14:25:10.514Z,987.07
2022-12-27T14:32:18.875Z,987.03
2022-12-27T14:39:21.085Z,986.98
2022-12-27T14:46:28.753Z,986.94
2022-12-27T14:53:21.018Z,986.94
2022-12-27T15:00:26.558Z,987
2022-12-27T15:07:32.865Z,986.97
2022-12-27T15:14:41.864Z,987.12
2022-12-27T15:21:42.196Z,987.1
2022-12-27T15:28:50.246Z,987.09
2022-12-27T15:35:55.476Z,986.93
2022-12-27T15:43:02.239Z,986.88
2022-12-27T15:50:12.861Z,986.92
2022-12-27T15:57:26.776Z,986.94
2022-12-27T16:04:30.155Z,986.89
2022-12-27T16:11:26.520Z,986.98
2022-12-27T16:18:25.999Z,986.99
2022-12-27T16:25:05.287Z,986.97
2022-12-27T16:32:01.509Z,986.98
2022-12-27T16:38:54.657Z,986.9
2022-12-27T16:45:46.047Z,986.83
2022-12-27T16:52:54.332Z,986.8
2022-12-27T16:59:49.988Z,986.75
2022-12-27T17:06:37.555Z,986.64
2022-12-27T17:13:26.585Z,986.58
2022-12-27T17:20:22.108Z,986.53
2022-12-27T17:27:03.892Z,986.52
2022-12-27T17:34:09.942Z,986.48
2022-12-27T17:41:18.860Z,986.41
2022-12-27T17:48:20.847Z,986.27
2022-12-27T17:55:05.124Z,986.18
2022-12-27T18:02:07.268Z,986.14
2022-12-27T18:08:59.414Z,986.08
2022-12-27T18:15:56.678Z,986.02
2022-12-27T18:22:40.838Z,985.95
2022-12-27T18:29:21.348Z,985.9
2022-12-27T18:36:03.003Z,985.86
2022-12-27T18:43:09.356Z,985.92
2022-12-27T18:50:03.437Z,985.84
2022-12-27T18:57:11.385Z,985.81
2022-12-27T19:03:55.933Z,985.68
2022-12-27T19:10:50.966Z,985.48
2022-12-27T19:17:42.338Z,985.41
2022-12-27T19:24:41.327Z,985.31
2022-12-27T19:31:29.832Z,985.18
2022-12-27T19:38:06.215Z,985.1
2022-12-27T19:44:47.980Z,985.09
2022-12-27T19:51:11.061Z,985.1
2022-12-27T19:57:44.352Z,984.97
2022-12-27T20:04:11.145Z,984.91
2022-12-27T20:10:40.895Z,984.89
2022-12-27T20:17:05.004Z,984.8
2022-12-27T20:23:29.990Z,984.62
2022-12-27T20:29:58.186Z,984.68
2022-12-27T20:36:33.628Z,984.7
2022-12-27T20:42:59.960Z,984.67
2022-12-27T20:49:27.309Z,984.72
2022-12-27T20:56:02.022Z,984.63
2022-12-27T21:02:32.121Z,984.59
2022-12-27T21:09:01.125Z,984.47
2022-12-27T21:15:22.166Z,984.46
2022-12-27T21:21:48.976Z,984.39
2022-12-27T21:28:13.062Z,984.39
2022-12-27T21:34:42.546Z,984.37
2022-12-27T21:41:10.465Z,984.26
2022-12-27T21:47:40.384Z,984.28
2022-12-27T21:54:16.042Z,984.23
2022-12-27T22:00:39.967Z,984.17
2022-12-27T22:07:07.991Z,984.1
2022-12-27T22:13:32.067Z,984.02
2022-12-27T22:20:02.547Z,983.96
2022-12-27T22:26:30.423Z,983.98
2022-12-27T22:33:00.025Z,983.89
2022-12-27T22:39:24.355Z,983.87
2022-12-27T22:45:54.883Z,983.84
2022-12-27T22:52:20.049Z,983.85
2022-12-27T22:58:44.963Z,983.86
2022-12-27T23:05:11.084Z,983.82
2022-12-27T23:11:47.592Z,983.73
2022-12-27T23:18:06.975Z,983.71
2022-12-27T23:24:37.209Z,983.55
2022-12-27T23:31:00.243Z,983.4
2022-12-27T23:37:21.021Z,983.27
2022-12-27T23:43:56.619Z,983.14
2022-12-27T23:50:24.047Z,983.06
2022-12-27T23:56:54.110Z,983.04
